createdAt,value
2023-05-13T00:02:20.334Z,12.64
2023-05-13T00:05:25.676Z,12.51
2023-05-13T00:08:31.134Z,12.54
2023-05-13T00:11:36.798Z,12.62
2023-05-13T00:14:42.530Z,12.50
2023-05-13T00:17:47.836Z,12.42
2023-05-13T00:20:53.398Z,12.39
2023-05-13T00:23:59.441Z,12.39
2023-05-13T00:27:04.986Z,12.51
2023-05-13T00:30:11.274Z,12.39
2023-05-13T00:33:16.756Z,12.32
2023-05-13T00:36:22.396Z,12.34
2023-05-13T00:39:29.378Z,12.35
2023-05-13T00:42:34.894Z,12.41
2023-05-13T00:45:41.379Z,12.33
2023-05-13T00:48:47.408Z,12.32
2023-05-13T00:51:55.498Z,12.38
2023-05-13T00:55:01.519Z,12.37
2023-05-13T00:58:06.951Z,12.40
2023-05-13T01:01:32.321Z,12.33
2023-05-13T01:04:45.682Z,12.33
2023-05-13T01:08:25.209Z,12.31
2023-05-13T01:11:42.115Z,12.49
2023-05-13T01:14:55.819Z,12.36
2023-05-13T01:18:11.505Z,12.39
2023-05-13T01:21:17.408Z,12.43
2023-05-13T01:24:23.425Z,12.48
2023-05-13T01:27:29.382Z,12.39
2023-05-13T01:30:36.922Z,12.33
2023-05-13T01:33:44.282Z,12.31
2023-05-13T01:36:51.392Z,12.36
2023-05-13T01:39:59.300Z,12.47
2023-05-13T01:43:05.210Z,12.45
2023-05-13T01:46:14.263Z,12.37
2023-05-13T01:49:20.064Z,12.42
2023-05-13T01:52:25.572Z,12.39
2023-05-13T01:55:31.765Z,12.36
2023-05-13T01:58:40.459Z,12.37
2023-05-13T02:01:46.345Z,12.43
2023-05-13T02:04:51.991Z,12.36
2023-05-13T02:07:57.746Z,12.39
2023-05-13T02:11:03.852Z,12.30
2023-05-13T02:14:09.259Z,12.28
2023-05-13T02:17:15.212Z,12.20
2023-05-13T02:20:21.707Z,12.07
2023-05-13T02:23:27.726Z,12.09
2023-05-13T02:26:34.346Z,12.19
2023-05-13T02:29:40.211Z,12.12
2023-05-13T02:32:47.764Z,12.12
2023-05-13T02:35:53.660Z,12.16
2023-05-13T02:38:59.362Z,12.00
2023-05-13T02:42:05.689Z,12.06
2023-05-13T02:45:12.411Z,11.92
2023-05-13T02:48:21.003Z,11.90
2023-05-13T02:51:26.673Z,11.87
2023-05-13T02:54:32.648Z,11.82
2023-05-13T02:57:38.356Z,11.84
2023-05-13T03:00:44.219Z,11.76
2023-05-13T03:03:50.720Z,11.76
2023-05-13T03:06:56.033Z,11.76
2023-05-13T03:10:01.696Z,11.75
2023-05-13T03:13:07.406Z,11.77
2023-05-13T03:16:13.544Z,11.66
2023-05-13T03:19:19.101Z,11.79
2023-05-13T03:22:24.395Z,11.74
2023-05-13T03:25:30.261Z,11.80
2023-05-13T03:28:37.751Z,11.76
2023-05-13T03:31:43.724Z,11.68
2023-05-13T03:34:49.331Z,11.74
2023-05-13T03:37:55.743Z,11.82
2023-05-13T03:41:01.462Z,11.86
2023-05-13T03:44:08.089Z,11.79
2023-05-13T03:47:13.712Z,11.77
2023-05-13T03:50:19.647Z,11.79
2023-05-13T03:53:25.275Z,11.76
2023-05-13T03:56:32.966Z,11.80
2023-05-13T03:59:40.231Z,11.75
2023-05-13T04:02:46.373Z,11.77
2023-05-13T04:05:52.592Z,11.79
2023-05-13T04:08:58.488Z,11.93
2023-05-13T04:12:04.260Z,11.92
2023-05-13T04:15:09.952Z,12.05
2023-05-13T04:18:15.284Z,11.95
2023-05-13T04:21:20.974Z,11.91
2023-05-13T04:24:27.029Z,12.06
2023-05-13T04:27:32.363Z,11.90
2023-05-13T04:30:45.630Z,11.88
2023-05-13T04:33:51.316Z,12.00
2023-05-13T04:36:57.094Z,11.94
2023-05-13T04:40:04.057Z,11.95
2023-05-13T04:43:09.974Z,12.05
2023-05-13T04:46:24.487Z,12.14
2023-05-13T04:49:30.775Z,12.07
2023-05-13T04:52:37.849Z,12.12
2023-05-13T04:55:43.657Z,12.10
2023-05-13T04:58:49.246Z,12.08
2023-05-13T05:01:55.241Z,12.14
2023-05-13T05:05:00.859Z,12.19
2023-05-13T05:08:06.820Z,12.09
2023-05-13T05:11:12.777Z,12.30
2023-05-13T05:14:18.297Z,12.32
2023-05-13T05:17:24.156Z,12.28
2023-05-13T05:20:29.594Z,12.42
2023-05-13T05:23:37.377Z,12.51
2023-05-13T05:26:42.910Z,12.53
2023-05-13T05:29:49.140Z,12.69
2023-05-13T05:32:54.552Z,12.71
2023-05-13T05:36:00.661Z,12.75
2023-05-13T05:39:06.502Z,12.71
2023-05-13T05:42:15.595Z,12.87
2023-05-13T05:45:21.325Z,13.04
2023-05-13T05:48:27.036Z,13.02
2023-05-13T05:51:33.286Z,13.11
2023-05-13T05:54:40.856Z,13.05
2023-05-13T05:57:46.130Z,13.12
2023-05-13T06:00:52.024Z,13.00
2023-05-13T06:03:57.089Z,13.03
2023-05-13T06:07:02.820Z,13.09
2023-05-13T06:10:09.025Z,13.16
2023-05-13T06:13:15.028Z,13.25
2023-05-13T06:16:20.952Z,13.24
2023-05-13T06:19:26.963Z,13.17
2023-05-13T06:22:32.982Z,13.29
2023-05-13T06:25:39.006Z,13.66
2023-05-13T06:28:45.521Z,13.77
2023-05-13T06:31:51.186Z,14.02
2023-05-13T06:34:56.821Z,14.36
2023-05-13T06:38:02.373Z,14.31
2023-05-13T06:41:08.050Z,14.54
2023-05-13T06:44:16.280Z,14.49
2023-05-13T06:47:24.415Z,14.37
2023-05-13T06:50:30.157Z,14.35
2023-05-13T06:53:35.943Z,14.50
2023-05-13T06:56:41.753Z,14.67
2023-05-13T06:59:47.646Z,14.71
2023-05-13T07:02:52.931Z,14.65
2023-05-13T07:05:58.326Z,14.58
2023-05-13T07:09:08.204Z,14.73
2023-05-13T07:12:14.681Z,14.78
2023-05-13T07:15:20.646Z,14.60
2023-05-13T07:18:26.520Z,14.68
2023-05-13T07:21:32.423Z,14.89
2023-05-13T07:24:37.748Z,15.20
2023-05-13T07:27:43.125Z,15.12
2023-05-13T07:30:48.773Z,14.98
2023-05-13T07:33:54.055Z,14.89
2023-05-13T07:36:59.289Z,15.02
2023-05-13T07:40:06.965Z,15.06
2023-05-13T07:43:14.209Z,15.30
2023-05-13T07:46:19.734Z,15.50
2023-05-13T07:49:25.106Z,15.44
2023-05-13T07:52:30.560Z,15.35
2023-05-13T07:55:35.810Z,15.28
2023-05-13T07:58:41.178Z,15.33
2023-05-13T08:01:46.801Z,15.33
2023-05-13T08:04:52.215Z,15.42
2023-05-13T08:07:58.010Z,15.58
2023-05-13T08:11:03.544Z,15.80
2023-05-13T08:14:08.648Z,15.83
2023-05-13T08:17:14.250Z,15.79
2023-05-13T08:20:20.277Z,15.96
2023-05-13T08:23:43.539Z,15.57
2023-05-13T08:26:51.316Z,15.86
2023-05-13T08:29:56.445Z,15.85
2023-05-13T08:33:02.117Z,15.84
2023-05-13T08:36:08.566Z,15.84
2023-05-13T08:42:40.193Z,15.97
2023-05-13T08:45:48.357Z,16.04
2023-05-13T08:48:55.359Z,15.98
2023-05-13T08:52:01.007Z,16.01
2023-05-13T08:55:09.091Z,16.45
2023-05-13T08:58:14.226Z,16.31
2023-05-13T09:01:19.633Z,16.52
2023-05-13T09:04:26.253Z,16.41
2023-05-13T09:07:31.990Z,16.59
2023-05-13T09:10:37.764Z,16.71
2023-05-13T09:13:45.391Z,17.07
2023-05-13T09:16:50.829Z,16.80
2023-05-13T09:19:57.005Z,16.60
2023-05-13T09:23:10.800Z,16.68
2023-05-13T09:26:30.035Z,16.76
2023-05-13T09:29:35.230Z,16.54
2023-05-13T09:32:42.938Z,16.81
2023-05-13T09:35:53.698Z,17.39
2023-05-13T09:39:00.315Z,17.58
2023-05-13T09:42:06.635Z,17.85
2023-05-13T09:45:14.222Z,17.94
2023-05-13T09:48:23.940Z,17.07
2023-05-13T09:51:31.306Z,16.87
2023-05-13T09:54:36.873Z,16.68
2023-05-13T09:57:42.556Z,16.48
2023-05-13T10:00:48.795Z,16.45
2023-05-13T10:03:57.065Z,16.43
2023-05-13T10:07:05.323Z,16.45
2023-05-13T10:10:11.035Z,16.61
2023-05-13T10:13:20.212Z,17.27
2023-05-13T10:16:26.205Z,17.28
2023-05-13T10:19:32.492Z,16.91
2023-05-13T10:22:39.455Z,16.59
2023-05-13T10:25:46.536Z,16.73
2023-05-13T10:28:54.095Z,16.84
2023-05-13T10:32:00.704Z,17.05
2023-05-13T10:35:13.760Z,17.10
2023-05-13T10:38:48.413Z,17.01
2023-05-13T10:42:44.516Z,16.90
2023-05-13T10:46:01.468Z,17.45
2023-05-13T10:49:16.438Z,18.16
2023-05-13T10:52:22.375Z,18.38
2023-05-13T10:55:28.413Z,17.81
2023-05-13T10:58:38.532Z,17.70
2023-05-13T11:01:46.129Z,17.17
2023-05-13T11:05:00.530Z,17.77
2023-05-13T11:08:05.916Z,18.08
2023-05-13T11:11:22.981Z,17.71
2023-05-13T11:14:31.284Z,17.36
2023-05-13T11:17:37.808Z,17.14
2023-05-13T11:20:52.481Z,17.05
2023-05-13T11:24:05.836Z,17.52
2023-05-13T11:27:21.566Z,17.78
2023-05-13T11:30:28.024Z,18.37
2023-05-13T11:34:11.955Z,18.41
2023-05-13T11:37:18.287Z,18.70
2023-05-13T11:40:26.004Z,18.62
2023-05-13T11:43:34.106Z,18.45
2023-05-13T11:46:53.396Z,18.58
2023-05-13T11:49:59.378Z,19.16
2023-05-13T11:53:05.340Z,18.69
2023-05-13T11:56:11.845Z,19.01
2023-05-13T11:59:17.440Z,19.43
2023-05-13T12:02:35.615Z,19.41
2023-05-13T12:05:41.621Z,19.19
2023-05-13T12:08:47.467Z,19.85
2023-05-13T12:11:54.067Z,19.59
2023-05-13T12:15:00.915Z,18.99
2023-05-13T12:18:07.051Z,18.99
2023-05-13T12:21:17.763Z,18.92
2023-05-13T12:24:23.146Z,18.64
2023-05-13T12:27:29.027Z,19.11
2023-05-13T12:30:35.580Z,18.37
2023-05-13T12:33:43.047Z,19.00
2023-05-13T12:36:48.383Z,19.47
2023-05-13T12:40:10.596Z,19.69
2023-05-13T12:43:20.473Z,20.02
2023-05-13T12:46:26.292Z,20.23
2023-05-13T12:49:32.036Z,20.12
2023-05-13T12:52:37.649Z,20.20
2023-05-13T12:55:43.910Z,19.63
2023-05-13T12:58:51.030Z,19.31
2023-05-13T13:01:56.481Z,19.62
2023-05-13T13:05:01.929Z,20.21
2023-05-13T13:08:07.188Z,20.12
2023-05-13T13:11:18.886Z,19.55
2023-05-13T13:14:26.395Z,19.10
2023-05-13T13:17:31.708Z,19.00
2023-05-13T13:20:39.007Z,19.02
2023-05-13T13:23:44.629Z,18.85
2023-05-13T13:26:50.467Z,18.86
2023-05-13T13:29:56.121Z,18.88
2023-05-13T13:33:02.087Z,18.73
2023-05-13T13:36:07.975Z,18.68
2023-05-13T13:39:13.291Z,18.49
2023-05-13T13:42:18.563Z,18.53
2023-05-13T13:45:24.463Z,18.39
2023-05-13T13:48:29.328Z,18.30
2023-05-13T13:51:34.501Z,18.38
2023-05-13T13:54:39.833Z,18.31
2023-05-13T13:57:46.055Z,18.41
2023-05-13T14:00:52.881Z,18.33
2023-05-13T14:04:16.207Z,18.27
2023-05-13T14:07:21.518Z,18.27
2023-05-13T14:10:26.897Z,18.23
2023-05-13T14:13:32.432Z,18.35
2023-05-13T14:16:37.470Z,18.32
2023-05-13T14:19:42.755Z,18.28
2023-05-13T14:22:48.470Z,18.49
2023-05-13T14:25:54.186Z,18.43
2023-05-13T14:28:59.345Z,18.77
2023-05-13T14:32:04.855Z,18.81
2023-05-13T14:35:10.465Z,18.79
2023-05-13T14:38:16.075Z,19.03
2023-05-13T14:41:21.887Z,18.96
2023-05-13T14:44:26.996Z,18.73
2023-05-13T14:47:32.613Z,18.63
2023-05-13T14:50:39.414Z,18.59
2023-05-13T14:53:47.081Z,18.38
2023-05-13T14:56:53.372Z,18.31
2023-05-13T15:00:00.047Z,18.34
2023-05-13T15:03:06.552Z,18.27
2023-05-13T15:06:12.092Z,17.84
2023-05-13T15:09:19.408Z,17.08
2023-05-13T15:12:24.932Z,16.78
2023-05-13T15:15:30.939Z,16.49
2023-05-13T15:18:36.556Z,16.45
2023-05-13T15:21:41.996Z,16.52
2023-05-13T15:24:47.868Z,16.35
2023-05-13T15:27:53.372Z,16.09
2023-05-13T15:30:59.173Z,15.92
2023-05-13T15:34:04.969Z,15.88
2023-05-13T15:37:10.794Z,15.63
2023-05-13T15:40:16.467Z,15.54
2023-05-13T15:43:21.993Z,15.38
2023-05-13T15:46:27.368Z,15.30
2023-05-13T15:49:36.054Z,15.28
2023-05-13T15:52:41.538Z,15.35
2023-05-13T15:55:47.230Z,15.27
2023-05-13T15:58:53.207Z,15.26
2023-05-13T16:01:58.567Z,15.12
2023-05-13T16:05:04.191Z,15.20
2023-05-13T16:08:09.731Z,15.07
2023-05-13T16:11:15.350Z,15.24
2023-05-13T16:14:20.599Z,15.26
2023-05-13T16:17:26.341Z,15.16
2023-05-13T16:20:31.612Z,15.03
2023-05-13T16:23:37.110Z,15.13
2023-05-13T16:26:42.363Z,15.19
2023-05-13T16:29:47.854Z,15.19
2023-05-13T16:32:54.692Z,15.37
2023-05-13T16:36:00.164Z,15.30
2023-05-13T16:39:05.819Z,15.44
2023-05-13T16:42:11.581Z,15.29
2023-05-13T16:45:16.940Z,15.31
2023-05-13T16:48:22.581Z,15.33
2023-05-13T16:51:28.358Z,15.40
2023-05-13T16:54:34.705Z,15.31
2023-05-13T16:57:40.241Z,15.27
2023-05-13T17:00:45.781Z,15.27
2023-05-13T17:03:51.273Z,15.31
2023-05-13T17:06:58.902Z,15.27
2023-05-13T17:10:04.945Z,15.30
2023-05-13T17:13:10.878Z,15.15
2023-05-13T17:16:16.672Z,15.17
2023-05-13T17:19:22.110Z,15.19
2023-05-13T17:22:28.072Z,15.16
2023-05-13T17:25:33.693Z,15.20
2023-05-13T17:28:40.572Z,15.18
2023-05-13T17:31:46.021Z,15.17
2023-05-13T17:34:51.591Z,15.09
2023-05-13T17:37:57.104Z,15.05
2023-05-13T17:41:02.312Z,15.12
2023-05-13T17:44:07.725Z,14.98
2023-05-13T17:47:13.296Z,14.99
2023-05-13T17:50:19.288Z,15.03
2023-05-13T17:53:25.168Z,14.90
2023-05-13T17:56:31.446Z,14.93
2023-05-13T17:59:37.748Z,14.91
2023-05-13T18:02:43.397Z,14.87
2023-05-13T18:05:49.312Z,14.86
2023-05-13T18:08:54.627Z,14.82
2023-05-13T18:12:00.079Z,14.85
2023-05-13T18:15:06.837Z,14.79
2023-05-13T18:18:12.167Z,14.71
2023-05-13T18:21:18.019Z,14.69
2023-05-13T18:24:23.566Z,14.74
2023-05-13T18:27:28.831Z,14.70
2023-05-13T18:30:34.433Z,14.67
2023-05-13T18:33:39.674Z,14.66
2023-05-13T18:36:46.142Z,14.59
2023-05-13T18:39:51.947Z,14.59
2023-05-13T18:42:57.666Z,14.61
2023-05-13T18:46:03.209Z,14.52
2023-05-13T18:49:08.788Z,14.50
2023-05-13T18:52:14.328Z,14.49
2023-05-13T18:55:20.244Z,14.44
2023-05-13T18:58:27.377Z,14.47
2023-05-13T19:01:33.193Z,14.51
2023-05-13T19:04:38.684Z,14.27
2023-05-13T19:07:44.753Z,14.38
2023-05-13T19:10:50.241Z,14.32
2023-05-13T19:13:55.905Z,14.32
2023-05-13T19:17:01.916Z,14.28
2023-05-13T19:20:09.044Z,14.27
2023-05-13T19:23:14.852Z,14.24
2023-05-13T19:26:20.153Z,14.17
2023-05-13T19:29:26.312Z,14.19
2023-05-13T19:32:31.985Z,14.18
2023-05-13T19:35:37.645Z,14.21
2023-05-13T19:38:43.329Z,14.19
2023-05-13T19:41:48.985Z,14.09
2023-05-13T19:44:54.148Z,14.08
2023-05-13T19:47:59.621Z,14.09
2023-05-13T19:51:05.268Z,14.05
2023-05-13T19:54:12.251Z,14.11
2023-05-13T19:57:17.637Z,14.09
2023-05-13T20:00:24.555Z,13.97
2023-05-13T20:03:31.085Z,14.07
2023-05-13T20:06:37.064Z,14.02
2023-05-13T20:09:42.348Z,13.95
2023-05-13T20:12:47.873Z,14.04
2023-05-13T20:15:53.174Z,13.95
2023-05-13T20:18:58.427Z,13.92
2023-05-13T20:22:04.411Z,13.86
2023-05-13T20:25:10.413Z,13.95
2023-05-13T20:28:16.000Z,13.94
2023-05-13T20:31:21.785Z,13.88
2023-05-13T20:34:27.216Z,13.86
2023-05-13T20:37:32.946Z,13.84
2023-05-13T20:40:38.932Z,13.85
2023-05-13T20:43:44.396Z,13.88
2023-05-13T20:46:50.367Z,13.92
2023-05-13T20:49:55.855Z,13.92
2023-05-13T20:53:01.669Z,13.84
2023-05-13T20:56:07.214Z,13.80
2023-05-13T20:59:12.786Z,13.85
2023-05-13T21:02:18.824Z,13.93
2023-05-13T21:05:24.692Z,13.87
2023-05-13T21:08:30.458Z,13.89
2023-05-13T21:11:36.741Z,13.84
2023-05-13T21:14:42.077Z,13.85
2023-05-13T21:17:48.205Z,13.90
2023-05-13T21:20:53.374Z,13.73
2023-05-13T21:23:58.693Z,13.81
2023-05-13T21:27:03.838Z,13.87
2023-05-13T21:30:10.422Z,13.88
2023-05-13T21:33:17.204Z,13.80
2023-05-13T21:36:23.018Z,13.87
2023-05-13T21:39:28.715Z,13.84
2023-05-13T21:42:34.563Z,13.72
2023-05-13T21:45:40.421Z,13.74
2023-05-13T21:48:47.025Z,13.63
2023-05-13T21:51:52.866Z,13.64
2023-05-13T21:54:58.420Z,13.53
2023-05-13T21:58:03.746Z,13.55
2023-05-13T22:01:09.762Z,13.59
2023-05-13T22:04:15.292Z,13.50
2023-05-13T22:07:21.178Z,13.53
2023-05-13T22:10:26.821Z,13.48
2023-05-13T22:13:31.927Z,13.50
2023-05-13T22:16:37.415Z,13.52
2023-05-13T22:19:42.893Z,13.48
2023-05-13T22:22:48.030Z,13.47
2023-05-13T22:25:53.811Z,13.49
2023-05-13T22:28:59.243Z,13.57
2023-05-13T22:32:04.825Z,13.49
2023-05-13T22:35:10.825Z,13.61
2023-05-13T22:38:16.118Z,13.63
2023-05-13T22:41:23.914Z,13.49
2023-05-13T22:44:29.246Z,13.27
2023-05-13T22:47:37.304Z,13.23
2023-05-13T22:50:42.607Z,13.14
2023-05-13T22:53:47.923Z,13.15
2023-05-13T22:56:53.186Z,13.20
2023-05-13T22:59:58.730Z,13.39
2023-05-13T23:03:04.195Z,13.43
2023-05-13T23:06:11.460Z,13.57
2023-05-13T23:09:17.170Z,13.46
2023-05-13T23:12:22.827Z,13.43
2023-05-13T23:15:28.284Z,13.42
2023-05-13T23:18:34.519Z,13.42
2023-05-13T23:21:39.770Z,13.47
2023-05-13T23:24:45.460Z,13.39
2023-05-13T23:27:51.523Z,13.43
2023-05-13T23:30:57.096Z,13.49
2023-05-13T23:34:03.011Z,13.41
2023-05-13T23:37:08.331Z,13.42
2023-05-13T23:40:14.061Z,13.51
2023-05-13T23:43:18.991Z,13.53
2023-05-13T23:46:24.333Z,13.45
2023-05-13T23:49:29.627Z,13.49
2023-05-13T23:52:35.058Z,13.50
2023-05-13T23:55:40.809Z,13.45
2023-05-13T23:58:46.138Z,13.45
